Time;durP1;ratioP1;P1;durP2;ratioP2;P2;SDS_P1;SDS_P2;PMS_P1;PMS_P2;Temp;Humidity;BMP_temperature;BMP_pressure;BME280_temperature;BME280_humidity;BME280_pressure;Samples;Min_cycle;Max_cycle;Signal;HPM_P1;HPM_P2
2021/10/13 00:00:53;;;;;;;15.88;8.27;;;7.80;99.90;;;;;;5031735;28;20030;-73
2021/10/13 00:03:19;;;;;;;14.90;8.32;;;7.90;99.90;;;;;;5031565;28;20045;-73
2021/10/13 00:05:45;;;;;;;16.17;8.95;;;7.80;99.90;;;;;;5031868;28;20042;-73
2021/10/13 00:08:11;;;;;;;13.75;7.68;;;7.80;99.90;;;;;;5035114;28;20088;-73
2021/10/13 00:10:36;;;;;;;14.05;7.50;;;7.80;99.90;;;;;;5035424;28;20033;-73
2021/10/13 00:13:02;;;;;;;20.55;8.48;;;7.80;99.90;;;;;;5035542;28;20033;-73
2021/10/13 00:15:28;;;;;;;16.67;8.70;;;7.70;99.90;;;;;;5033875;28;20021;-73
2021/10/13 00:17:54;;;;;;;15.88;8.48;;;7.70;99.90;;;;;;5034938;28;20069;-73
2021/10/13 00:20:20;;;;;;;17.98;8.27;;;7.70;99.90;;;;;;5050916;28;20054;-72
2021/10/13 00:22:45;;;;;;;15.73;9.07;;;7.60;99.90;;;;;;5035153;28;20029;-73
2021/10/13 00:25:11;;;;;;;16.33;8.57;;;7.40;99.90;;;;;;5050250;28;20167;-73
2021/10/13 00:27:37;;;;;;;15.32;9.48;;;7.40;99.90;;;;;;5034014;28;20386;-73
2021/10/13 00:30:04;;;;;;;15.52;9.48;;;7.20;99.90;;;;;;5035044;28;20466;-73
2021/10/13 00:32:30;;;;;;;16.08;8.27;;;7.10;99.90;;;;;;5034908;28;20037;-73
2021/10/13 00:34:56;;;;;;;18.25;8.60;;;7.00;99.90;;;;;;5035098;28;20120;-72
2021/10/13 00:37:22;;;;;;;15.98;8.65;;;7.00;99.90;;;;;;5034663;28;20075;-73
2021/10/13 00:39:48;;;;;;;20.25;9.02;;;6.90;99.90;;;;;;5035138;28;20484;-73
2021/10/13 00:42:14;;;;;;;16.98;8.73;;;6.80;99.90;;;;;;5034593;28;20486;-72
2021/10/13 00:44:42;;;;;;;16.85;9.48;;;6.70;99.90;;;;;;5034650;28;20033;-72
2021/10/13 00:47:08;;;;;;;19.63;9.07;;;6.70;99.90;;;;;;5034923;28;20538;-72
2021/10/13 00:49:34;;;;;;;19.63;9.57;;;6.90;99.90;;;;;;5050244;28;20033;-73
2021/10/13 00:52:02;;;;;;;17.25;9.00;;;6.90;99.90;;;;;;5050031;28;20079;-73
2021/10/13 00:54:29;;;;;;;17.27;9.07;;;7.00;99.90;;;;;;5049943;28;20037;-73
2021/10/13 00:56:55;;;;;;;18.08;9.52;;;7.10;99.90;;;;;;5050173;28;20393;-74
2021/10/13 00:59:21;;;;;;;16.52;9.30;;;7.20;99.90;;;;;;5049909;28;20064;-74
2021/10/13 01:02:08;;;;;;;20.05;9.90;;;7.10;99.90;;;;;;5034693;28;20068;-74
2021/10/13 01:04:43;;;;;;;16.08;9.77;;;7.10;99.90;;;;;;5049558;28;20033;-74
2021/10/13 01:07:29;;;;;;;16.65;8.65;;;7.00;99.90;;;;;;5034538;28;20099;-73
2021/10/13 01:09:59;;;;;;;15.30;8.27;;;6.90;99.90;;;;;;5049715;28;20029;-74
2021/10/13 01:12:39;;;;;;;16.67;8.48;;;6.90;99.90;;;;;;5049633;28;20080;-74
2021/10/13 01:15:22;;;;;;;15.75;7.90;;;6.90;99.90;;;;;;5034515;28;20029;-73
2021/10/13 01:18:02;;;;;;;15.77;8.02;;;7.00;99.90;;;;;;5048058;28;20513;-73
2021/10/13 01:20:53;;;;;;;15.32;8.20;;;7.00;99.90;;;;;;5049352;28;20033;-74
2021/10/13 01:23:39;;;;;;;16.00;7.93;;;6.90;99.90;;;;;;5048903;28;20033;-73
2021/10/13 01:26:40;;;;;;;15.13;9.75;;;6.90;99.90;;;;;;5049306;28;20040;-73
2021/10/13 01:29:13;;;;;;;13.07;8.03;;;6.80;99.90;;;;;;5048758;28;20034;-72
2021/10/13 01:31:49;;;;;;;14.63;8.65;;;6.70;99.90;;;;;;5049183;28;20029;-73
2021/10/13 01:34:28;;;;;;;17.90;8.50;;;6.60;99.90;;;;;;5048707;28;20116;-73
2021/10/13 01:37:59;;;;;;;15.38;7.45;;;6.60;99.90;;;;;;5049180;28;20572;-72
2021/10/13 01:40:31;;;;;;;14.27;8.73;;;6.60;99.90;;;;;;5031159;28;20112;-73
2021/10/13 01:43:02;;;;;;;17.90;8.55;;;6.50;99.90;;;;;;5048917;28;20037;-73
2021/10/13 01:45:28;;;;;;;15.13;8.05;;;6.50;99.90;;;;;;5048930;28;20064;-72
2021/10/13 01:47:54;;;;;;;16.10;8.05;;;6.50;99.90;;;;;;5048844;28;20025;-73
2021/10/13 01:50:24;;;;;;;15.77;7.90;;;6.40;99.90;;;;;;5048583;28;20116;-73
2021/10/13 01:52:51;;;;;;;15.68;9.07;;;6.40;99.90;;;;;;5049231;28;20033;-72
2021/10/13 01:55:20;;;;;;;14.95;8.43;;;6.30;99.90;;;;;;5048481;28;20033;-73
2021/10/13 01:57:50;;;;;;;14.27;8.20;;;6.20;99.90;;;;;;5048900;28;20061;-73
2021/10/13 02:00:18;;;;;;;14.02;7.63;;;6.10;99.90;;;;;;5048150;28;20025;-73
2021/10/13 02:02:47;;;;;;;14.90;7.50;;;6.20;99.90;;;;;;5048586;28;20033;-72
2021/10/13 02:05:15;;;;;;;17.60;7.88;;;6.20;99.90;;;;;;5048059;28;20060;-73
2021/10/13 02:07:42;;;;;;;12.02;7.55;;;6.10;99.90;;;;;;5032160;28;20041;-73
2021/10/13 02:10:10;;;;;;;14.40;8.10;;;6.10;99.90;;;;;;5048360;28;20037;-73
2021/10/13 02:12:42;;;;;;;13.00;7.65;;;6.10;99.90;;;;;;5032852;28;20029;-73
2021/10/13 02:15:11;;;;;;;14.38;8.45;;;6.10;99.90;;;;;;5032904;28;20056;-73
2021/10/13 02:17:42;;;;;;;14.93;7.15;;;6.10;99.90;;;;;;5047635;28;20029;-73
2021/10/13 02:20:09;;;;;;;15.70;7.90;;;6.10;99.90;;;;;;5048120;28;20037;-73
2021/10/13 02:22:36;;;;;;;12.32;6.38;;;6.10;99.90;;;;;;5032834;28;20448;-73
2021/10/13 02:25:03;;;;;;;14.32;7.50;;;6.10;99.90;;;;;;5048085;28;20470;-72
2021/10/13 02:27:50;;;;;;;11.95;6.30;;;6.00;99.90;;;;;;5048216;28;20048;-73
2021/10/13 02:30:16;;;;;;;9.73;6.00;;;5.90;99.90;;;;;;5032052;28;20496;-73
2021/10/13 02:32:42;;;;;;;10.02;5.30;;;5.70;99.90;;;;;;5032709;28;20030;-73
2021/10/13 02:35:09;;;;;;;14.43;5.57;;;5.60;99.90;;;;;;5032972;28;20040;-73
2021/10/13 02:37:35;;;;;;;10.70;5.60;;;5.60;99.90;;;;;;5047814;28;20391;-73
2021/10/13 02:40:01;;;;;;;10.23;5.28;;;5.60;99.90;;;;;;5032529;28;20029;-73
2021/10/13 02:42:27;;;;;;;9.60;5.90;;;5.50;99.90;;;;;;5032437;28;20040;-74
2021/10/13 02:44:53;;;;;;;9.38;5.30;;;5.50;99.90;;;;;;5047939;28;20033;-74
2021/10/13 02:47:30;;;;;;;10.02;6.00;;;5.50;99.90;;;;;;5032249;28;20395;-74
2021/10/13 02:50:19;;;;;;;12.40;6.45;;;5.50;99.90;;;;;;5032691;28;20030;-74
2021/10/13 02:53:33;;;;;;;13.65;6.68;;;5.40;99.90;;;;;;5032659;28;20040;-74
2021/10/13 02:56:09;;;;;;;23.83;8.05;;;5.40;99.90;;;;;;5030417;28;20048;-74
2021/10/13 02:58:52;;;;;;;19.67;7.75;;;5.40;99.90;;;;;;5046633;28;20032;-74
2021/10/13 03:01:20;;;;;;;12.48;6.97;;;5.40;99.90;;;;;;5046580;28;20052;-74
2021/10/13 03:03:59;;;;;;;11.60;6.93;;;5.40;99.90;;;;;;5047689;28;20033;-74
2021/10/13 03:06:36;;;;;;;10.23;5.72;;;5.50;99.90;;;;;;5046809;28;20060;-74
2021/10/13 03:09:03;;;;;;;8.45;5.25;;;5.20;99.90;;;;;;5046835;28;20094;-74
2021/10/13 03:11:30;;;;;;;8.30;4.57;;;5.30;99.90;;;;;;5032246;28;20026;-74
2021/10/13 03:13:59;;;;;;;12.32;4.88;;;5.20;99.90;;;;;;5047422;28;20068;-74
2021/10/13 03:16:27;;;;;;;8.15;4.90;;;5.30;99.90;;;;;;5047486;28;20072;-74
2021/10/13 03:18:56;;;;;;;12.88;6.57;;;5.00;99.90;;;;;;5047221;28;20041;-74
2021/10/13 03:21:27;;;;;;;18.48;8.50;;;5.10;99.90;;;;;;5047366;28;20036;-74
2021/10/13 03:23:52;;;;;;;13.38;7.05;;;5.10;99.90;;;;;;5047383;28;20029;-74
2021/10/13 03:26:18;;;;;;;11.68;6.93;;;5.20;99.90;;;;;;5032199;28;20513;-74
2021/10/13 03:28:44;;;;;;;17.25;7.18;;;5.20;99.90;;;;;;5032098;28;20046;-74
2021/10/13 03:31:10;;;;;;;12.63;6.80;;;5.20;99.90;;;;;;5032141;28;20045;-72
2021/10/13 03:33:37;;;;;;;18.13;8.15;;;5.20;99.90;;;;;;5032147;28;20112;-73
2021/10/13 03:36:08;;;;;;;15.02;7.30;;;5.20;99.90;;;;;;5047599;28;20470;-72
2021/10/13 03:38:34;;;;;;;15.43;7.93;;;5.20;99.90;;;;;;5047429;28;20033;-72
2021/10/13 03:41:00;;;;;;;12.57;6.95;;;5.20;99.90;;;;;;5047532;28;20120;-73
2021/10/13 03:43:26;;;;;;;16.45;6.90;;;5.20;99.90;;;;;;5035681;28;20076;-72
2021/10/13 03:45:51;;;;;;;15.60;8.27;;;5.30;99.90;;;;;;5051179;28;20047;-71
2021/10/13 03:48:17;;;;;;;14.98;8.23;;;5.30;99.90;;;;;;5035695;28;20030;-73
2021/10/13 03:50:43;;;;;;;21.23;9.02;;;5.30;99.90;;;;;;5036020;28;20034;-73
2021/10/13 03:53:09;;;;;;;14.95;8.00;;;5.40;99.90;;;;;;5035842;28;20045;-73
2021/10/13 03:55:35;;;;;;;13.93;7.53;;;5.60;99.90;;;;;;5035994;28;20037;-73
2021/10/13 03:58:01;;;;;;;16.60;8.65;;;5.70;99.90;;;;;;5036348;28;20064;-73
2021/10/13 04:00:27;;;;;;;15.90;8.60;;;5.60;99.90;;;;;;5051316;28;20057;-74
2021/10/13 04:02:53;;;;;;;21.50;10.25;;;5.70;99.90;;;;;;5036146;28;20040;-73
2021/10/13 04:05:19;;;;;;;20.27;9.63;;;5.70;99.90;;;;;;5035510;28;20025;-73
2021/10/13 04:07:45;;;;;;;24.02;10.38;;;5.70;99.90;;;;;;5051087;28;20033;-73
2021/10/13 04:10:14;;;;;;;22.00;10.52;;;5.80;99.90;;;;;;5035769;28;20037;-73
2021/10/13 04:12:40;;;;;;;23.40;11.00;;;5.80;99.90;;;;;;5050287;28;20025;-73
2021/10/13 04:15:09;;;;;;;23.48;10.30;;;5.90;99.90;;;;;;5035771;28;20052;-73
2021/10/13 04:17:35;;;;;;;19.85;10.00;;;6.00;99.90;;;;;;5034925;28;20034;-73
2021/10/13 04:20:04;;;;;;;25.77;10.95;;;6.00;99.90;;;;;;5050706;28;20038;-73
2021/10/13 04:22:30;;;;;;;21.90;10.73;;;6.10;99.90;;;;;;5035310;28;20033;-73
2021/10/13 04:24:56;;;;;;;21.02;9.75;;;6.20;99.90;;;;;;5050763;28;20030;-73
2021/10/13 04:27:22;;;;;;;17.42;8.93;;;6.30;99.90;;;;;;5035263;28;20056;-73
2021/10/13 04:29:48;;;;;;;20.08;9.98;;;6.30;99.90;;;;;;5050817;28;20082;-73
2021/10/13 04:32:14;;;;;;;23.58;9.75;;;6.30;99.90;;;;;;5035294;28;20026;-73
2021/10/13 04:34:39;;;;;;;23.80;11.27;;;6.30;99.90;;;;;;5034947;28;20029;-73
2021/10/13 04:37:05;;;;;;;18.83;9.20;;;6.30;99.90;;;;;;5035232;28;20021;-73
2021/10/13 04:39:31;;;;;;;20.67;9.80;;;6.30;99.90;;;;;;5050411;28;20041;-73
2021/10/13 04:41:56;;;;;;;20.58;10.43;;;6.30;99.90;;;;;;5050524;28;20052;-73
2021/10/13 04:44:22;;;;;;;25.20;12.75;;;6.20;99.90;;;;;;5034733;28;20087;-73
2021/10/13 04:46:48;;;;;;;23.70;11.45;;;6.40;99.90;;;;;;5034913;28;20028;-73
2021/10/13 04:49:14;;;;;;;22.90;10.07;;;6.30;99.90;;;;;;5034643;28;20072;-73
2021/10/13 04:51:39;;;;;;;22.98;11.07;;;6.20;99.90;;;;;;5034864;28;20025;-73
2021/10/13 04:54:05;;;;;;;40.15;20.13;;;6.20;99.90;;;;;;5034391;28;20501;-73
2021/10/13 04:56:31;;;;;;;24.33;13.27;;;6.20;99.90;;;;;;5034400;28;20163;-73
2021/10/13 04:58:56;;;;;;;23.10;10.13;;;6.10;99.90;;;;;;5034492;28;20030;-73
2021/10/13 05:01:22;;;;;;;16.73;8.73;;;6.30;99.90;;;;;;5034811;28;20489;-73
2021/10/13 05:03:48;;;;;;;22.38;9.25;;;6.10;99.90;;;;;;5034593;28;20038;-73
2021/10/13 05:06:14;;;;;;;21.00;9.25;;;6.20;99.90;;;;;;5034596;28;20033;-73
2021/10/13 05:08:39;;;;;;;21.27;10.30;;;6.10;99.90;;;;;;5049638;28;20044;-73
2021/10/13 05:11:05;;;;;;;25.95;11.45;;;6.10;99.90;;;;;;5034641;28;20029;-73
2021/10/13 05:13:31;;;;;;;20.60;10.52;;;6.10;99.90;;;;;;5033995;28;20080;-73
2021/10/13 05:15:56;;;;;;;23.17;10.45;;;6.10;99.90;;;;;;5034342;28;20029;-73
2021/10/13 05:18:22;;;;;;;18.85;9.32;;;6.10;99.90;;;;;;5034182;28;20050;-73
2021/10/13 05:20:48;;;;;;;19.38;9.35;;;6.20;99.90;;;;;;5034076;28;20034;-75
2021/10/13 05:23:14;;;;;;;21.08;9.65;;;6.10;99.90;;;;;;5034220;28;20035;-73
2021/10/13 05:25:40;;;;;;;21.73;9.70;;;6.10;99.90;;;;;;5036109;28;20120;-75
2021/10/13 05:28:05;;;;;;;16.67;7.75;;;6.20;99.90;;;;;;5053539;28;20072;-80
2021/10/13 05:30:31;;;;;;;13.75;7.80;;;6.20;99.90;;;;;;5053209;28;20454;-81
2021/10/13 05:32:57;;;;;;;18.73;8.45;;;6.20;99.90;;;;;;5053270;28;20108;-78
2021/10/13 05:35:23;;;;;;;18.30;8.93;;;6.20;99.90;;;;;;5069478;28;20120;-76
2021/10/13 05:37:48;;;;;;;21.75;11.95;;;6.30;99.90;;;;;;5053828;28;20124;-77
2021/10/13 05:40:14;;;;;;;19.63;10.07;;;6.30;99.90;;;;;;5053439;28;20128;-82
2021/10/13 05:42:40;;;;;;;109.63;49.50;;;6.50;99.90;;;;;;5052874;28;20434;-75
2021/10/13 05:45:06;;;;;;;55.85;23.90;;;6.40;99.90;;;;;;5053781;28;20029;-78
2021/10/13 05:47:32;;;;;;;37.58;17.67;;;6.50;99.90;;;;;;5051763;28;20501;-77
2021/10/13 05:49:58;;;;;;;35.88;14.75;;;6.40;99.90;;;;;;5053002;28;20029;-80
2021/10/13 05:52:24;;;;;;;20.85;9.82;;;6.50;99.90;;;;;;5051625;28;20594;-81
2021/10/13 05:54:49;;;;;;;18.92;9.80;;;6.50;99.90;;;;;;5055192;28;20044;-78
2021/10/13 05:57:15;;;;;;;70.30;33.42;;;6.50;99.90;;;;;;5088792;28;20408;-76
2021/10/13 05:59:42;;;;;;;25.83;12.02;;;6.60;99.90;;;;;;5088560;28;20055;-75
2021/10/13 06:02:08;;;;;;;18.25;10.52;;;6.60;99.90;;;;;;5071736;28;20085;-76
2021/10/13 06:04:34;;;;;;;23.23;11.52;;;6.50;99.90;;;;;;5072237;28;20115;-79
2021/10/13 06:07:00;;;;;;;23.23;11.48;;;6.50;99.90;;;;;;5072647;28;20063;-78
2021/10/13 06:09:27;;;;;;;23.27;8.88;;;6.60;99.90;;;;;;5088688;28;20047;-77
2021/10/13 06:11:53;;;;;;;19.55;8.77;;;6.70;99.90;;;;;;5072664;28;20028;-74
2021/10/13 06:14:18;;;;;;;15.25;7.57;;;6.60;99.90;;;;;;5073111;28;20527;-77
2021/10/13 06:16:44;;;;;;;20.20;8.48;;;6.50;99.90;;;;;;5054873;28;20044;-79
2021/10/13 06:19:10;;;;;;;19.75;9.85;;;6.50;99.90;;;;;;5072575;28;20095;-77
2021/10/13 06:21:36;;;;;;;24.42;11.40;;;6.60;99.90;;;;;;5054993;28;20032;-74
2021/10/13 06:24:02;;;;;;;28.38;13.60;;;6.70;99.90;;;;;;5071371;28;20119;-79
2021/10/13 06:26:27;;;;;;;34.20;14.40;;;7.00;99.90;;;;;;5057241;28;20035;-76
2021/10/13 06:28:53;;;;;;;42.63;16.45;;;7.20;99.90;;;;;;5052774;28;20036;-80
2021/10/13 06:31:23;;;;;;;33.72;14.10;;;7.20;99.90;;;;;;5051463;28;20029;-74
2021/10/13 06:33:51;;;;;;;32.00;14.63;;;7.10;99.90;;;;;;5052860;28;20541;-74
2021/10/13 06:36:16;;;;;;;33.35;15.25;;;7.20;99.90;;;;;;5052658;28;20115;-70
2021/10/13 06:38:42;;;;;;;35.05;13.75;;;7.30;99.90;;;;;;5052409;28;20043;-70
2021/10/13 06:41:09;;;;;;;30.23;13.93;;;7.30;99.90;;;;;;5051622;28;20029;-70
2021/10/13 06:43:36;;;;;;;38.22;14.48;;;7.40;99.90;;;;;;5052401;28;20078;-70
2021/10/13 06:46:03;;;;;;;33.47;14.65;;;7.50;99.90;;;;;;5067821;28;20036;-70
2021/10/13 06:48:29;;;;;;;27.38;13.82;;;7.50;99.90;;;;;;5052431;28;20406;-70
2021/10/13 06:50:54;;;;;;;28.38;14.05;;;7.60;99.90;;;;;;5052318;28;20032;-68
2021/10/13 06:53:20;;;;;;;29.02;13.27;;;7.60;99.90;;;;;;5052868;28;20044;-70
2021/10/13 06:55:46;;;;;;;28.95;13.10;;;7.70;99.90;;;;;;5052346;28;20029;-70
2021/10/13 06:58:13;;;;;;;29.17;13.48;;;7.80;99.90;;;;;;5052176;28;20052;-74
2021/10/13 07:00:40;;;;;;;36.33;14.27;;;7.70;99.90;;;;;;5067535;28;20154;-73
2021/10/13 07:03:06;;;;;;;28.33;13.18;;;7.80;99.90;;;;;;5052447;28;20040;-71
2021/10/13 07:05:31;;;;;;;25.13;12.18;;;7.90;99.90;;;;;;5013523;28;20051;-75
2021/10/13 07:07:57;;;;;;;21.60;11.60;;;8.00;99.90;;;;;;5053937;28;20029;-72
2021/10/13 07:10:23;;;;;;;27.95;12.15;;;7.90;99.90;;;;;;5052041;28;20083;-72
2021/10/13 07:12:49;;;;;;;23.08;11.75;;;8.00;99.90;;;;;;5067171;28;20049;-72
2021/10/13 07:15:15;;;;;;;30.15;13.30;;;8.10;99.90;;;;;;5052111;28;20120;-72
2021/10/13 07:17:42;;;;;;;29.20;11.95;;;8.20;99.90;;;;;;5051948;28;20033;-72
2021/10/13 07:20:09;;;;;;;51.50;27.00;;;8.30;99.90;;;;;;5051985;28;20087;-72
2021/10/13 07:22:36;;;;;;;27.55;12.25;;;8.30;99.90;;;;;;5067441;28;20124;-71
2021/10/13 07:25:04;;;;;;;32.08;14.20;;;8.20;99.90;;;;;;5051958;28;20067;-71
2021/10/13 07:27:30;;;;;;;27.73;14.00;;;8.10;99.90;;;;;;5067343;28;20029;-70
2021/10/13 07:30:02;;;;;;;28.27;14.05;;;8.20;99.90;;;;;;5067412;28;20044;-70
2021/10/13 07:32:34;;;;;;;28.65;12.90;;;8.20;99.90;;;;;;5051957;28;20025;-69
2021/10/13 07:35:01;;;;;;;22.95;11.98;;;8.30;99.90;;;;;;5067255;28;20120;-69
2021/10/13 07:37:28;;;;;;;28.58;13.10;;;8.10;99.90;;;;;;5084575;28;20047;-69
2021/10/13 07:39:55;;;;;;;23.15;11.50;;;8.10;99.90;;;;;;5071574;28;20090;-70
2021/10/13 07:42:21;;;;;;;25.58;12.30;;;8.30;99.90;;;;;;5087351;28;20064;-70
2021/10/13 07:44:47;;;;;;;28.00;12.98;;;8.40;99.90;;;;;;5071674;28;20060;-65
2021/10/13 07:47:13;;;;;;;29.10;12.35;;;8.40;99.90;;;;;;5071705;28;20046;-70
2021/10/13 07:49:40;;;;;;;26.20;12.63;;;8.50;99.90;;;;;;5087422;28;20064;-70
2021/10/13 07:52:06;;;;;;;26.38;12.20;;;8.50;99.90;;;;;;5087226;28;20033;-69
2021/10/13 07:54:32;;;;;;;27.75;12.48;;;8.50;99.90;;;;;;5053532;28;20119;-69
2021/10/13 07:56:58;;;;;;;27.92;12.52;;;8.60;99.90;;;;;;5051428;28;20040;-69
2021/10/13 07:59:24;;;;;;;27.83;12.07;;;8.50;99.90;;;;;;5066908;28;20036;-70
2021/10/13 08:01:50;;;;;;;21.75;12.73;;;8.60;99.90;;;;;;5051696;28;20137;-69
2021/10/13 08:04:15;;;;;;;25.80;12.50;;;8.60;99.90;;;;;;5067300;28;20025;-70
2021/10/13 08:06:41;;;;;;;27.95;12.07;;;8.60;99.90;;;;;;5062445;28;20059;-70
2021/10/13 08:09:07;;;;;;;23.45;13.30;;;8.80;99.90;;;;;;5071656;28;20025;-70
2021/10/13 08:11:33;;;;;;;27.65;12.35;;;8.80;99.90;;;;;;5071670;28;20032;-71
2021/10/13 08:13:59;;;;;;;24.00;10.77;;;8.90;99.90;;;;;;5071546;28;20028;-69
2021/10/13 08:16:25;;;;;;;18.77;10.32;;;9.20;99.90;;;;;;5087484;28;20108;-69
2021/10/13 08:18:51;;;;;;;22.88;11.10;;;9.30;99.90;;;;;;5071224;28;20382;-66
2021/10/13 08:21:16;;;;;;;20.98;10.38;;;9.40;99.90;;;;;;5071520;28;20082;-68
2021/10/13 08:23:42;;;;;;;20.50;11.75;;;9.40;99.90;;;;;;5071238;28;20033;-71
2021/10/13 08:26:08;;;;;;;32.03;11.60;;;9.20;99.90;;;;;;5087251;28;20033;-66
2021/10/13 08:28:35;;;;;;;23.70;11.25;;;9.20;99.90;;;;;;5073988;28;20037;-66
2021/10/13 08:31:01;;;;;;;21.50;11.38;;;9.40;99.90;;;;;;5074733;28;20059;-65
2021/10/13 08:33:27;;;;;;;29.88;11.70;;;9.70;99.90;;;;;;5075157;28;20024;-66
2021/10/13 08:35:53;;;;;;;28.65;12.50;;;9.60;99.90;;;;;;5086450;28;20128;-68
2021/10/13 08:38:19;;;;;;;27.17;13.55;;;9.70;99.90;;;;;;5053697;28;20128;-65
2021/10/13 08:40:45;;;;;;;27.45;13.70;;;9.50;99.90;;;;;;5054473;28;20021;-66
2021/10/13 08:43:10;;;;;;;30.70;14.88;;;9.60;99.90;;;;;;5070116;28;20398;-68
2021/10/13 08:45:38;;;;;;;27.45;14.45;;;9.60;99.90;;;;;;5054658;28;20028;-67
2021/10/13 08:48:06;;;;;;;26.70;13.50;;;9.70;99.90;;;;;;5054323;28;20041;-67
2021/10/13 08:50:36;;;;;;;27.73;14.50;;;9.80;99.90;;;;;;5054766;28;20025;-69
2021/10/13 08:53:14;;;;;;;33.33;15.13;;;9.80;99.90;;;;;;5054517;28;20037;-69
2021/10/13 08:55:43;;;;;;;29.55;13.50;;;10.20;99.90;;;;;;5069784;28;20052;-68
2021/10/13 08:58:24;;;;;;;25.52;13.45;;;10.20;99.90;;;;;;5054531;28;20071;-69
2021/10/13 09:01:03;;;;;;;32.47;17.48;;;10.30;99.90;;;;;;5069156;28;20064;-69
2021/10/13 09:03:31;;;;;;;28.90;15.20;;;10.40;99.90;;;;;;5068320;28;20025;-69
2021/10/13 09:06:12;;;;;;;30.27;14.68;;;10.40;99.90;;;;;;5059107;28;20028;-70
2021/10/13 09:09:10;;;;;;;27.63;12.27;;;10.60;99.90;;;;;;5073511;28;20071;-70
2021/10/13 09:11:46;;;;;;;23.70;12.10;;;10.70;99.90;;;;;;5074285;28;20035;-69
2021/10/13 09:14:15;;;;;;;28.85;12.98;;;11.00;99.90;;;;;;5073249;28;20032;-70
2021/10/13 09:17:06;;;;;;;29.73;12.63;;;11.00;99.90;;;;;;5072807;28;20039;-69
2021/10/13 09:19:44;;;;;;;24.92;11.93;;;10.60;99.90;;;;;;5073994;28;20094;-69
2021/10/13 09:22:15;;;;;;;24.50;10.77;;;10.60;99.90;;;;;;5074314;28;20444;-69
2021/10/13 09:24:53;;;;;;;25.83;11.27;;;10.60;99.90;;;;;;5089340;28;20078;-70
2021/10/13 09:27:31;;;;;;;22.08;10.85;;;10.70;99.90;;;;;;5089460;28;20120;-70
2021/10/13 09:30:04;;;;;;;24.67;10.75;;;10.60;99.90;;;;;;5073857;28;20082;-71
2021/10/13 09:32:30;;;;;;;23.30;11.30;;;10.70;99.90;;;;;;5074040;28;20024;-70
2021/10/13 09:34:57;;;;;;;22.90;9.85;;;10.60;99.90;;;;;;5089156;28;20448;-71
2021/10/13 09:37:41;;;;;;;18.70;10.25;;;10.70;99.90;;;;;;5057113;28;20029;-70
2021/10/13 09:40:07;;;;;;;21.27;11.00;;;10.70;99.90;;;;;;5052744;28;20119;-70
2021/10/13 09:42:40;;;;;;;26.83;11.65;;;10.70;99.90;;;;;;5052578;28;20112;-70
2021/10/13 09:45:11;;;;;;;22.83;11.48;;;10.80;99.90;;;;;;5033695;28;20474;-70
2021/10/13 09:47:38;;;;;;;24.20;12.32;;;10.90;99.90;;;;;;5048905;28;20040;-71
2021/10/13 09:50:22;;;;;;;27.20;10.25;;;11.00;99.90;;;;;;5048424;28;20052;-71
2021/10/13 09:52:48;;;;;;;21.90;9.20;;;11.10;99.90;;;;;;5053206;28;20409;-70
2021/10/13 09:55:14;;;;;;;18.80;9.13;;;11.20;99.90;;;;;;5068624;28;20086;-70
2021/10/13 09:57:48;;;;;;;20.75;8.65;;;11.10;99.90;;;;;;5053550;28;20489;-70
2021/10/13 10:00:15;;;;;;;32.97;9.95;;;11.10;99.90;;;;;;5053287;28;20033;-71
2021/10/13 10:02:50;;;;;;;19.35;9.05;;;11.10;99.90;;;;;;5053539;28;20049;-71
2021/10/13 10:05:22;;;;;;;19.20;8.82;;;11.00;99.90;;;;;;5051986;28;20037;-71
2021/10/13 10:08:07;;;;;;;21.27;8.77;;;11.20;99.90;;;;;;5053298;28;20025;-71
2021/10/13 10:10:36;;;;;;;17.02;8.25;;;11.20;99.90;;;;;;5053181;28;20041;-71
2021/10/13 10:13:11;;;;;;;20.50;8.20;;;11.40;99.90;;;;;;5051434;28;20032;-70
2021/10/13 10:15:45;;;;;;;16.55;8.55;;;11.90;99.90;;;;;;5053136;28;20481;-72
2021/10/13 10:18:33;;;;;;;13.77;6.70;;;12.50;99.90;;;;;;5051739;28;20140;-72
2021/10/13 10:21:17;;;;;;;19.25;7.20;;;12.40;99.90;;;;;;5053015;28;20041;-69
2021/10/13 10:23:43;;;;;;;10.45;6.18;;;12.30;99.90;;;;;;5053077;28;20048;-72
2021/10/13 10:26:27;;;;;;;15.70;6.03;;;12.60;99.90;;;;;;5052627;28;20450;-74
2021/10/13 10:28:54;;;;;;;13.48;6.97;;;12.80;99.90;;;;;;5052809;28;20115;-74
2021/10/13 10:31:29;;;;;;;14.77;7.32;;;12.80;99.90;;;;;;5052931;28;20146;-72
2021/10/13 10:34:07;;;;;;;15.80;6.68;;;12.60;99.90;;;;;;5052455;28;20374;-67
2021/10/13 10:36:37;;;;;;;27.38;11.82;;;12.50;99.90;;;;;;5067977;28;20041;-66
2021/10/13 10:39:11;;;;;;;13.20;7.37;;;12.50;99.90;;;;;;5052286;28;20029;-67
2021/10/13 10:41:54;;;;;;;15.70;7.03;;;13.00;99.90;;;;;;5050995;28;20037;-68
2021/10/13 10:44:39;;;;;;;10.95;6.00;;;13.30;99.90;;;;;;5052529;28;20032;-67
2021/10/13 10:47:16;;;;;;;10.93;6.65;;;13.40;99.90;;;;;;5052204;28;20036;-68
2021/10/13 10:49:45;;;;;;;14.23;7.32;;;13.30;99.90;;;;;;5051183;28;20033;-67
2021/10/13 10:52:14;;;;;;;15.18;7.18;;;12.80;99.90;;;;;;5052134;28;20037;-66
2021/10/13 10:55:06;;;;;;;14.05;7.47;;;12.80;99.90;;;;;;5051194;28;20112;-66
2021/10/13 10:57:46;;;;;;;13.77;6.88;;;12.50;99.90;;;;;;5052465;28;20033;-65
2021/10/13 11:00:20;;;;;;;18.05;6.68;;;13.10;99.90;;;;;;5051357;28;20095;-68
2021/10/13 11:02:49;;;;;;;12.13;5.95;;;13.30;99.90;;;;;;5052277;28;20445;-66
2021/10/13 11:05:14;;;;;;;15.10;6.10;;;13.20;99.90;;;;;;5051059;28;20119;-65
2021/10/13 11:07:42;;;;;;;13.60;7.00;;;13.40;99.90;;;;;;5067430;28;20136;-65
2021/10/13 11:10:19;;;;;;;12.65;6.90;;;13.00;99.90;;;;;;5034203;28;20040;-66
2021/10/13 11:12:54;;;;;;;12.90;6.70;;;12.90;99.90;;;;;;5050774;28;20025;-66
2021/10/13 11:15:23;;;;;;;14.15;6.70;;;12.80;99.90;;;;;;5052406;28;20343;-67
2021/10/13 11:17:49;;;;;;;9.68;5.82;;;12.90;99.90;;;;;;5052070;28;20055;-67
2021/10/13 11:20:22;;;;;;;13.02;6.40;;;12.70;99.90;;;;;;5052363;28;20470;-67
2021/10/13 11:23:03;;;;;;;15.40;6.05;;;12.50;99.90;;;;;;5050757;28;20029;-65
2021/10/13 11:25:30;;;;;;;9.15;5.25;;;12.40;99.90;;;;;;5051762;28;20445;-69
2021/10/13 11:28:06;;;;;;;16.50;6.85;;;12.70;99.90;;;;;;5049076;28;20049;-70
2021/10/13 11:30:48;;;;;;;11.95;6.03;;;12.80;99.90;;;;;;5044193;28;20528;-69
2021/10/13 11:33:18;;;;;;;13.75;6.53;;;12.90;99.90;;;;;;5041967;28;20450;-70
2021/10/13 11:35:45;;;;;;;14.02;6.13;;;13.20;99.90;;;;;;5054447;28;20076;-70
2021/10/13 11:38:20;;;;;;;13.68;5.30;;;13.60;99.90;;;;;;5044662;28;20044;-67
2021/10/13 11:40:47;;;;;;;11.95;5.95;;;13.80;99.90;;;;;;5051704;28;20105;-70
2021/10/13 11:43:17;;;;;;;9.75;5.55;;;13.60;99.90;;;;;;5051268;28;20488;-70
2021/10/13 11:45:52;;;;;;;13.20;5.07;;;14.90;99.90;;;;;;5038230;28;20034;-69
2021/10/13 11:48:28;;;;;;;8.88;4.10;;;16.60;99.90;;;;;;5037179;28;20068;-67
2021/10/13 11:50:55;;;;;;;7.47;3.50;;;17.80;99.90;;;;;;5055697;28;20025;-67
2021/10/13 11:53:22;;;;;;;6.68;3.78;;;19.10;99.80;;;;;;5047399;28;20041;-67
2021/10/13 11:55:48;;;;;;;9.77;4.32;;;18.10;99.90;;;;;;5041846;28;20034;-68
2021/10/13 11:58:24;;;;;;;10.15;3.95;;;17.90;99.80;;;;;;5051467;28;20474;-68
2021/10/13 12:00:50;;;;;;;5.72;3.35;;;19.60;98.00;;;;;;5050427;28;20037;-66
2021/10/13 12:03:16;;;;;;;7.88;3.58;;;20.20;96.50;;;;;;5053211;28;20033;-66
2021/10/13 12:05:58;;;;;;;9.50;3.70;;;18.50;97.50;;;;;;5055601;28;20481;-67
2021/10/13 12:08:32;;;;;;;5.00;2.50;;;18.70;98.10;;;;;;5053619;28;20028;-69
2021/10/13 12:11:10;;;;;;;10.60;2.58;;;19.00;96.00;;;;;;5042222;28;20041;-67
2021/10/13 12:13:50;;;;;;;5.18;2.67;;;18.10;97.20;;;;;;5037466;28;20040;-67
2021/10/13 12:16:26;;;;;;;6.30;3.20;;;16.80;99.60;;;;;;5047740;28;20072;-67
2021/10/13 12:18:52;;;;;;;7.00;3.83;;;15.10;99.90;;;;;;5050380;28;20140;-64
2021/10/13 12:21:22;;;;;;;5.90;3.22;;;13.70;99.90;;;;;;5053973;28;20108;-67
2021/10/13 12:24:04;;;;;;;6.82;3.50;;;14.20;99.90;;;;;;5043860;28;20026;-68
2021/10/13 12:26:39;;;;;;;8.63;4.03;;;13.60;99.90;;;;;;5036156;28;20041;-68
2021/10/13 12:29:12;;;;;;;6.80;3.38;;;14.00;99.90;;;;;;5040644;28;20102;-67
2021/10/13 12:31:40;;;;;;;8.68;3.70;;;14.00;99.90;;;;;;5041209;28;20068;-68
2021/10/13 12:34:17;;;;;;;10.10;4.30;;;13.50;99.90;;;;;;5043892;28;20030;-68
2021/10/13 12:36:51;;;;;;;9.50;4.72;;;13.80;99.90;;;;;;5041871;28;20038;-68
2021/10/13 12:39:23;;;;;;;8.48;3.83;;;13.60;99.90;;;;;;5042166;28;20052;-69
2021/10/13 12:41:50;;;;;;;9.50;4.13;;;13.50;99.90;;;;;;5043284;28;20059;-68
2021/10/13 12:44:24;;;;;;;6.47;3.25;;;13.50;99.90;;;;;;5042208;28;20036;-69
2021/10/13 12:47:01;;;;;;;8.63;3.72;;;13.90;99.90;;;;;;5042213;28;20025;-68
2021/10/13 12:49:41;;;;;;;6.80;3.50;;;13.70;99.90;;;;;;5046340;28;20059;-68
2021/10/13 12:52:13;;;;;;;6.85;3.28;;;14.20;99.90;;;;;;5046137;28;20036;-68
2021/10/13 12:54:43;;;;;;;10.10;3.28;;;13.80;99.90;;;;;;5049772;28;20391;-68